sensor_id;sensor_type;location;lat;lon;timestamp;P1;durP1;ratioP1;P2;durP2;ratioP2
63818;SDS011;49970;54.976;73.248;2024-02-14T00:02:25;15.73;;;9.73;;
63818;SDS011;49970;54.976;73.248;2024-02-14T00:04:54;14.57;;;11.07;;
63818;SDS011;49970;54.976;73.248;2024-02-14T00:07:20;15.65;;;10.25;;
63818;SDS011;49970;54.976;73.248;2024-02-14T00:09:47;20.30;;;12.05;;
63818;SDS011;49970;54.976;73.248;2024-02-14T00:12:14;18.80;;;10.63;;
63818;SDS011;49970;54.976;73.248;2024-02-14T00:14:40;20.27;;;12.23;;
63818;SDS011;49970;54.976;73.248;2024-02-14T00:17:08;21.70;;;12.43;;
63818;SDS011;49970;54.976;73.248;2024-02-14T00:19:36;19.05;;;11.95;;
63818;SDS011;49970;54.976;73.248;2024-02-14T00:22:02;16.42;;;12.18;;
63818;SDS011;49970;54.976;73.248;2024-02-14T00:24:29;19.58;;;11.55;;
63818;SDS011;49970;54.976;73.248;2024-02-14T00:26:55;26.63;;;13.82;;
63818;SDS011;49970;54.976;73.248;2024-02-14T00:29:22;15.35;;;11.23;;
63818;SDS011;49970;54.976;73.248;2024-02-14T00:31:50;21.92;;;12.95;;
63818;SDS011;49970;54.976;73.248;2024-02-14T00:34:16;18.20;;;11.48;;
63818;SDS011;49970;54.976;73.248;2024-02-14T00:36:42;20.80;;;11.85;;
63818;SDS011;49970;54.976;73.248;2024-02-14T00:39:09;18.20;;;11.48;;
63818;SDS011;49970;54.976;73.248;2024-02-14T00:41:35;27.00;;;10.68;;
63818;SDS011;49970;54.976;73.248;2024-02-14T00:44:01;18.42;;;11.77;;
63818;SDS011;49970;54.976;73.248;2024-02-14T00:46:29;25.98;;;12.15;;
63818;SDS011;49970;54.976;73.248;2024-02-14T00:48:55;18.23;;;12.10;;
63818;SDS011;49970;54.976;73.248;2024-02-14T00:51:22;27.65;;;13.13;;
63818;SDS011;49970;54.976;73.248;2024-02-14T00:54:55;23.52;;;14.35;;
63818;SDS011;49970;54.976;73.248;2024-02-14T00:58:01;19.40;;;12.43;;
63818;SDS011;49970;54.976;73.248;2024-02-14T01:00:28;20.63;;;13.27;;
63818;SDS011;49970;54.976;73.248;2024-02-14T01:02:54;26.90;;;13.85;;
63818;SDS011;49970;54.976;73.248;2024-02-14T01:05:22;25.00;;;14.02;;
63818;SDS011;49970;54.976;73.248;2024-02-14T01:07:48;22.98;;;12.98;;
63818;SDS011;49970;54.976;73.248;2024-02-14T01:10:14;21.73;;;13.48;;
63818;SDS011;49970;54.976;73.248;2024-02-14T01:12:41;24.40;;;13.02;;
63818;SDS011;49970;54.976;73.248;2024-02-14T01:15:07;24.38;;;12.75;;
63818;SDS011;49970;54.976;73.248;2024-02-14T01:17:34;20.52;;;12.80;;
63818;SDS011;49970;54.976;73.248;2024-02-14T01:20:02;19.77;;;11.52;;
63818;SDS011;49970;54.976;73.248;2024-02-14T01:22:29;19.15;;;12.23;;
63818;SDS011;49970;54.976;73.248;2024-02-14T01:24:55;23.60;;;12.70;;
63818;SDS011;49970;54.976;73.248;2024-02-14T01:27:21;19.95;;;13.02;;
63818;SDS011;49970;54.976;73.248;2024-02-14T01:29:48;21.30;;;13.48;;
63818;SDS011;49970;54.976;73.248;2024-02-14T01:32:14;18.75;;;12.65;;
63818;SDS011;49970;54.976;73.248;2024-02-14T01:34:42;19.55;;;11.82;;
63818;SDS011;49970;54.976;73.248;2024-02-14T01:37:09;20.25;;;12.77;;
63818;SDS011;49970;54.976;73.248;2024-02-14T01:39:36;21.42;;;11.70;;
63818;SDS011;49970;54.976;73.248;2024-02-14T01:42:02;20.98;;;12.15;;
63818;SDS011;49970;54.976;73.248;2024-02-14T01:44:33;26.00;;;13.75;;
63818;SDS011;49970;54.976;73.248;2024-02-14T01:47:00;18.48;;;12.38;;
63818;SDS011;49970;54.976;73.248;2024-02-14T01:49:27;20.20;;;12.30;;
63818;SDS011;49970;54.976;73.248;2024-02-14T01:51:55;23.77;;;12.05;;
63818;SDS011;49970;54.976;73.248;2024-02-14T01:54:27;24.95;;;12.63;;
63818;SDS011;49970;54.976;73.248;2024-02-14T01:56:56;24.58;;;12.93;;
63818;SDS011;49970;54.976;73.248;2024-02-14T01:59:24;17.70;;;11.98;;
63818;SDS011;49970;54.976;73.248;2024-02-14T02:01:52;20.15;;;11.93;;
63818;SDS011;49970;54.976;73.248;2024-02-14T02:04:18;18.50;;;11.50;;
63818;SDS011;49970;54.976;73.248;2024-02-14T02:06:45;21.20;;;12.43;;
63818;SDS011;49970;54.976;73.248;2024-02-14T02:09:11;22.80;;;12.63;;
63818;SDS011;49970;54.976;73.248;2024-02-14T02:11:48;35.25;;;13.70;;
63818;SDS011;49970;54.976;73.248;2024-02-14T02:14:15;23.80;;;13.65;;
63818;SDS011;49970;54.976;73.248;2024-02-14T02:16:42;22.80;;;12.75;;
63818;SDS011;49970;54.976;73.248;2024-02-14T02:19:09;23.85;;;13.10;;
63818;SDS011;49970;54.976;73.248;2024-02-14T02:21:36;18.13;;;12.80;;
63818;SDS011;49970;54.976;73.248;2024-02-14T02:24:14;29.60;;;12.75;;
63818;SDS011;49970;54.976;73.248;2024-02-14T02:26:45;27.45;;;12.57;;
63818;SDS011;49970;54.976;73.248;2024-02-14T02:29:17;22.58;;;13.57;;
63818;SDS011;49970;54.976;73.248;2024-02-14T02:31:49;21.90;;;12.95;;
63818;SDS011;49970;54.976;73.248;2024-02-14T02:34:20;18.27;;;12.02;;
63818;SDS011;49970;54.976;73.248;2024-02-14T02:36:50;22.92;;;13.07;;
63818;SDS011;49970;54.976;73.248;2024-02-14T02:39:21;18.00;;;12.57;;
63818;SDS011;49970;54.976;73.248;2024-02-14T02:41:53;24.73;;;12.60;;
63818;SDS011;49970;54.976;73.248;2024-02-14T02:44:24;26.98;;;14.48;;
63818;SDS011;49970;54.976;73.248;2024-02-14T02:46:57;24.52;;;13.57;;
63818;SDS011;49970;54.976;73.248;2024-02-14T02:49:27;23.73;;;14.65;;
63818;SDS011;49970;54.976;73.248;2024-02-14T02:52:59;22.45;;;13.98;;
63818;SDS011;49970;54.976;73.248;2024-02-14T02:56:30;25.15;;;12.48;;
63818;SDS011;49970;54.976;73.248;2024-02-14T03:00:01;34.50;;;14.73;;
63818;SDS011;49970;54.976;73.248;2024-02-14T03:03:52;20.52;;;12.40;;
63818;SDS011;49970;54.976;73.248;2024-02-14T03:07:23;23.52;;;13.40;;
63818;SDS011;49970;54.976;73.248;2024-02-14T03:10:53;25.45;;;13.65;;
63818;SDS011;49970;54.976;73.248;2024-02-14T03:14:25;25.10;;;13.18;;
63818;SDS011;49970;54.976;73.248;2024-02-14T03:17:56;17.95;;;11.85;;
63818;SDS011;49970;54.976;73.248;2024-02-14T03:20:23;27.13;;;13.32;;
63818;SDS011;49970;54.976;73.248;2024-02-14T03:22:49;20.05;;;11.90;;
63818;SDS011;49970;54.976;73.248;2024-02-14T03:25:16;21.20;;;14.25;;
63818;SDS011;49970;54.976;73.248;2024-02-14T03:27:43;26.92;;;14.05;;
63818;SDS011;49970;54.976;73.248;2024-02-14T03:30:15;24.45;;;13.73;;
63818;SDS011;49970;54.976;73.248;2024-02-14T03:32:42;20.77;;;12.88;;
63818;SDS011;49970;54.976;73.248;2024-02-14T03:35:09;18.95;;;13.15;;
63818;SDS011;49970;54.976;73.248;2024-02-14T03:37:37;28.17;;;15.52;;
63818;SDS011;49970;54.976;73.248;2024-02-14T03:40:05;38.90;;;14.80;;
63818;SDS011;49970;54.976;73.248;2024-02-14T03:42:33;27.95;;;15.35;;
63818;SDS011;49970;54.976;73.248;2024-02-14T03:45:00;25.92;;;16.45;;
63818;SDS011;49970;54.976;73.248;2024-02-14T03:47:32;22.52;;;13.45;;
63818;SDS011;49970;54.976;73.248;2024-02-14T03:49:59;34.50;;;14.38;;
63818;SDS011;49970;54.976;73.248;2024-02-14T03:52:25;24.30;;;13.48;;
63818;SDS011;49970;54.976;73.248;2024-02-14T03:54:52;26.50;;;13.30;;
63818;SDS011;49970;54.976;73.248;2024-02-14T03:57:18;21.05;;;12.98;;
63818;SDS011;49970;54.976;73.248;2024-02-14T03:59:45;26.75;;;14.95;;
63818;SDS011;49970;54.976;73.248;2024-02-14T04:02:12;25.80;;;15.25;;
63818;SDS011;49970;54.976;73.248;2024-02-14T04:04:42;24.40;;;13.65;;
63818;SDS011;49970;54.976;73.248;2024-02-14T04:07:09;35.72;;;14.05;;
63818;SDS011;49970;54.976;73.248;2024-02-14T04:09:36;26.48;;;13.73;;
63818;SDS011;49970;54.976;73.248;2024-02-14T04:12:02;22.90;;;13.23;;
63818;SDS011;49970;54.976;73.248;2024-02-14T04:14:28;23.05;;;13.27;;
63818;SDS011;49970;54.976;73.248;2024-02-14T04:16:55;28.35;;;15.40;;
63818;SDS011;49970;54.976;73.248;2024-02-14T04:19:21;27.15;;;14.70;;
63818;SDS011;49970;54.976;73.248;2024-02-14T04:21:48;28.25;;;15.25;;
63818;SDS011;49970;54.976;73.248;2024-02-14T04:24:14;30.50;;;17.02;;
63818;SDS011;49970;54.976;73.248;2024-02-14T04:26:40;25.52;;;15.48;;
63818;SDS011;49970;54.976;73.248;2024-02-14T04:29:10;27.48;;;16.50;;
63818;SDS011;49970;54.976;73.248;2024-02-14T04:31:36;25.98;;;15.73;;
63818;SDS011;49970;54.976;73.248;2024-02-14T04:34:03;30.85;;;16.88;;
63818;SDS011;49970;54.976;73.248;2024-02-14T04:36:30;28.38;;;15.25;;
63818;SDS011;49970;54.976;73.248;2024-02-14T04:38:57;32.00;;;17.63;;
63818;SDS011;49970;54.976;73.248;2024-02-14T04:41:24;23.60;;;15.25;;
63818;SDS011;49970;54.976;73.248;2024-02-14T04:43:50;25.40;;;15.55;;
63818;SDS011;49970;54.976;73.248;2024-02-14T04:46:16;26.65;;;16.10;;
63818;SDS011;49970;54.976;73.248;2024-02-14T04:48:43;26.05;;;15.32;;
63818;SDS011;49970;54.976;73.248;2024-02-14T04:51:09;39.75;;;15.18;;
63818;SDS011;49970;54.976;73.248;2024-02-14T04:53:35;35.58;;;16.23;;
63818;SDS011;49970;54.976;73.248;2024-02-14T04:56:02;23.70;;;15.50;;
63818;SDS011;49970;54.976;73.248;2024-02-14T04:58:28;27.88;;;15.93;;
63818;SDS011;49970;54.976;73.248;2024-02-14T05:00:55;31.13;;;15.98;;
63818;SDS011;49970;54.976;73.248;2024-02-14T05:03:22;41.63;;;16.15;;
63818;SDS011;49970;54.976;73.248;2024-02-14T05:05:50;27.55;;;14.90;;
63818;SDS011;49970;54.976;73.248;2024-02-14T05:08:16;29.90;;;16.42;;
63818;SDS011;49970;54.976;73.248;2024-02-14T05:10:43;41.72;;;18.35;;
63818;SDS011;49970;54.976;73.248;2024-02-14T05:13:09;45.55;;;15.57;;
63818;SDS011;49970;54.976;73.248;2024-02-14T05:15:35;26.35;;;15.45;;
63818;SDS011;49970;54.976;73.248;2024-02-14T05:18:12;38.08;;;18.08;;
63818;SDS011;49970;54.976;73.248;2024-02-14T05:20:38;26.15;;;15.45;;
63818;SDS011;49970;54.976;73.248;2024-02-14T05:23:04;24.55;;;15.23;;
63818;SDS011;49970;54.976;73.248;2024-02-14T05:25:31;25.52;;;14.45;;
63818;SDS011;49970;54.976;73.248;2024-02-14T05:27:58;27.25;;;15.50;;
63818;SDS011;49970;54.976;73.248;2024-02-14T05:30:26;25.67;;;15.25;;
63818;SDS011;49970;54.976;73.248;2024-02-14T05:32:52;34.22;;;14.15;;
63818;SDS011;49970;54.976;73.248;2024-02-14T05:35:20;24.27;;;13.48;;
63818;SDS011;49970;54.976;73.248;2024-02-14T05:37:47;36.10;;;12.70;;
63818;SDS011;49970;54.976;73.248;2024-02-14T05:40:15;30.90;;;15.45;;
63818;SDS011;49970;54.976;73.248;2024-02-14T05:43:47;26.83;;;14.77;;
63818;SDS011;49970;54.976;73.248;2024-02-14T05:46:13;24.02;;;13.93;;
63818;SDS011;49970;54.976;73.248;2024-02-14T05:48:39;25.05;;;14.43;;
63818;SDS011;49970;54.976;73.248;2024-02-14T05:51:06;23.40;;;15.80;;
63818;SDS011;49970;54.976;73.248;2024-02-14T05:53:33;27.02;;;14.00;;
63818;SDS011;49970;54.976;73.248;2024-02-14T05:55:59;25.17;;;14.57;;
63818;SDS011;49970;54.976;73.248;2024-02-14T05:58:26;25.08;;;15.30;;
63818;SDS011;49970;54.976;73.248;2024-02-14T06:00:54;25.35;;;13.98;;
63818;SDS011;49970;54.976;73.248;2024-02-14T06:03:21;28.55;;;14.95;;
63818;SDS011;49970;54.976;73.248;2024-02-14T06:05:48;29.02;;;14.65;;
63818;SDS011;49970;54.976;73.248;2024-02-14T06:08:14;29.83;;;14.77;;
63818;SDS011;49970;54.976;73.248;2024-02-14T06:10:41;27.08;;;13.55;;
63818;SDS011;49970;54.976;73.248;2024-02-14T06:14:11;30.83;;;13.48;;
63818;SDS011;49970;54.976;73.248;2024-02-14T06:16:55;20.85;;;13.65;;
63818;SDS011;49970;54.976;73.248;2024-02-14T06:19:22;17.55;;;13.13;;
63818;SDS011;49970;54.976;73.248;2024-02-14T06:21:49;25.75;;;15.10;;
63818;SDS011;49970;54.976;73.248;2024-02-14T06:24:15;31.08;;;15.75;;
63818;SDS011;49970;54.976;73.248;2024-02-14T06:26:41;33.50;;;16.33;;
63818;SDS011;49970;54.976;73.248;2024-02-14T06:29:08;31.20;;;14.48;;
63818;SDS011;49970;54.976;73.248;2024-02-14T06:31:34;28.80;;;14.85;;
63818;SDS011;49970;54.976;73.248;2024-02-14T06:34:01;28.15;;;14.55;;
63818;SDS011;49970;54.976;73.248;2024-02-14T06:36:27;43.75;;;14.80;;
63818;SDS011;49970;54.976;73.248;2024-02-14T06:38:53;25.35;;;15.00;;
63818;SDS011;49970;54.976;73.248;2024-02-14T06:42:26;29.33;;;14.27;;
63818;SDS011;49970;54.976;73.248;2024-02-14T06:45:58;19.20;;;12.32;;
63818;SDS011;49970;54.976;73.248;2024-02-14T06:49:32;30.08;;;13.38;;
63818;SDS011;49970;54.976;73.248;2024-02-14T06:53:05;27.20;;;14.07;;
63818;SDS011;49970;54.976;73.248;2024-02-14T06:56:37;21.02;;;11.82;;
63818;SDS011;49970;54.976;73.248;2024-02-14T07:00:11;28.55;;;13.40;;
63818;SDS011;49970;54.976;73.248;2024-02-14T07:03:42;30.83;;;12.90;;
63818;SDS011;49970;54.976;73.248;2024-02-14T07:06:14;23.85;;;16.00;;
63818;SDS011;49970;54.976;73.248;2024-02-14T07:08:46;28.63;;;13.25;;
63818;SDS011;49970;54.976;73.248;2024-02-14T07:11:17;31.63;;;16.13;;
63818;SDS011;49970;54.976;73.248;2024-02-14T07:13:48;30.05;;;15.48;;
63818;SDS011;49970;54.976;73.248;2024-02-14T07:16:20;38.47;;;17.35;;
63818;SDS011;49970;54.976;73.248;2024-02-14T07:18:49;27.13;;;13.27;;
63818;SDS011;49970;54.976;73.248;2024-02-14T07:21:20;25.52;;;15.05;;
63818;SDS011;49970;54.976;73.248;2024-02-14T07:23:51;25.52;;;12.13;;
63818;SDS011;49970;54.976;73.248;2024-02-14T07:26:22;37.22;;;18.52;;
63818;SDS011;49970;54.976;73.248;2024-02-14T07:28:55;18.92;;;13.90;;
63818;SDS011;49970;54.976;73.248;2024-02-14T07:31:28;38.88;;;13.65;;
63818;SDS011;49970;54.976;73.248;2024-02-14T07:34:01;27.20;;;17.23;;
63818;SDS011;49970;54.976;73.248;2024-02-14T07:36:31;31.80;;;16.25;;
63818;SDS011;49970;54.976;73.248;2024-02-14T07:39:03;28.77;;;14.02;;
63818;SDS011;49970;54.976;73.248;2024-02-14T07:41:34;24.55;;;15.82;;
63818;SDS011;49970;54.976;73.248;2024-02-14T07:44:04;23.27;;;14.80;;
63818;SDS011;49970;54.976;73.248;2024-02-14T07:47:36;25.52;;;14.27;;
63818;SDS011;49970;54.976;73.248;2024-02-14T07:50:02;27.50;;;13.80;;
63818;SDS011;49970;54.976;73.248;2024-02-14T07:52:29;20.00;;;12.65;;
63818;SDS011;49970;54.976;73.248;2024-02-14T07:54:57;16.17;;;10.65;;
63818;SDS011;49970;54.976;73.248;2024-02-14T07:57:23;20.88;;;14.10;;
63818;SDS011;49970;54.976;73.248;2024-02-14T07:59:50;27.58;;;14.02;;
63818;SDS011;49970;54.976;73.248;2024-02-14T08:02:18;18.65;;;12.57;;
63818;SDS011;49970;54.976;73.248;2024-02-14T08:04:45;23.10;;;11.73;;
63818;SDS011;49970;54.976;73.248;2024-02-14T08:07:11;42.25;;;12.93;;
63818;SDS011;49970;54.976;73.248;2024-02-14T08:09:38;21.42;;;11.52;;
63818;SDS011;49970;54.976;73.248;2024-02-14T08:12:05;14.32;;;10.20;;
63818;SDS011;49970;54.976;73.248;2024-02-14T08:14:32;14.63;;;11.43;;
63818;SDS011;49970;54.976;73.248;2024-02-14T08:16:58;16.13;;;9.60;;
63818;SDS011;49970;54.976;73.248;2024-02-14T08:19:24;12.07;;;9.93;;
63818;SDS011;49970;54.976;73.248;2024-02-14T08:22:56;27.13;;;14.27;;
63818;SDS011;49970;54.976;73.248;2024-02-14T08:25:38;37.05;;;10.25;;
63818;SDS011;49970;54.976;73.248;2024-02-14T08:28:06;17.95;;;14.05;;
63818;SDS011;49970;54.976;73.248;2024-02-14T08:30:33;20.10;;;14.10;;
63818;SDS011;49970;54.976;73.248;2024-02-14T08:33:00;21.30;;;13.68;;
63818;SDS011;49970;54.976;73.248;2024-02-14T08:35:27;13.50;;;9.55;;
63818;SDS011;49970;54.976;73.248;2024-02-14T08:37:53;29.33;;;13.55;;
63818;SDS011;49970;54.976;73.248;2024-02-14T08:40:20;41.80;;;8.25;;
63818;SDS011;49970;54.976;73.248;2024-02-14T08:42:46;15.38;;;8.25;;
63818;SDS011;49970;54.976;73.248;2024-02-14T08:45:57;16.10;;;8.40;;
63818;SDS011;49970;54.976;73.248;2024-02-14T08:48:24;21.38;;;13.98;;
63818;SDS011;49970;54.976;73.248;2024-02-14T08:50:53;26.73;;;13.05;;
63818;SDS011;49970;54.976;73.248;2024-02-14T08:53:19;58.08;;;8.05;;
63818;SDS011;49970;54.976;73.248;2024-02-14T08:55:45;15.73;;;9.55;;
63818;SDS011;49970;54.976;73.248;2024-02-14T08:58:12;33.53;;;10.88;;
63818;SDS011;49970;54.976;73.248;2024-02-14T09:00:38;15.05;;;9.82;;
63818;SDS011;49970;54.976;73.248;2024-02-14T09:03:05;18.40;;;9.02;;
63818;SDS011;49970;54.976;73.248;2024-02-14T09:05:32;10.73;;;8.60;;
63818;SDS011;49970;54.976;73.248;2024-02-14T09:07:58;9.27;;;8.32;;
63818;SDS011;49970;54.976;73.248;2024-02-14T09:10:26;11.45;;;7.25;;
63818;SDS011;49970;54.976;73.248;2024-02-14T09:12:52;28.35;;;7.88;;
63818;SDS011;49970;54.976;73.248;2024-02-14T09:15:20;10.80;;;6.00;;
63818;SDS011;49970;54.976;73.248;2024-02-14T09:17:47;12.10;;;7.72;;
63818;SDS011;49970;54.976;73.248;2024-02-14T09:20:14;15.25;;;8.30;;
63818;SDS011;49970;54.976;73.248;2024-02-14T09:22:40;35.25;;;10.32;;
63818;SDS011;49970;54.976;73.248;2024-02-14T09:25:07;42.47;;;12.18;;
63818;SDS011;49970;54.976;73.248;2024-02-14T09:27:37;22.60;;;13.68;;
63818;SDS011;49970;54.976;73.248;2024-02-14T09:30:03;20.40;;;11.80;;
63818;SDS011;49970;54.976;73.248;2024-02-14T09:32:31;17.02;;;10.25;;
63818;SDS011;49970;54.976;73.248;2024-02-14T09:34:58;21.60;;;9.82;;
63818;SDS011;49970;54.976;73.248;2024-02-14T09:37:25;19.58;;;13.50;;
63818;SDS011;49970;54.976;73.248;2024-02-14T09:39:54;20.67;;;9.20;;
63818;SDS011;49970;54.976;73.248;2024-02-14T09:42:22;17.95;;;9.73;;
63818;SDS011;49970;54.976;73.248;2024-02-14T09:44:59;24.70;;;11.90;;
63818;SDS011;49970;54.976;73.248;2024-02-14T09:47:26;42.30;;;13.80;;
63818;SDS011;49970;54.976;73.248;2024-02-14T09:49:58;13.70;;;11.60;;
63818;SDS011;49970;54.976;73.248;2024-02-14T09:53:28;15.27;;;11.20;;
63818;SDS011;49970;54.976;73.248;2024-02-14T09:55:56;21.30;;;13.95;;
63818;SDS011;49970;54.976;73.248;2024-02-14T09:58:24;14.07;;;11.13;;
63818;SDS011;49970;54.976;73.248;2024-02-14T10:01:55;14.70;;;11.05;;
63818;SDS011;49970;54.976;73.248;2024-02-14T10:05:25;21.05;;;15.35;;
63818;SDS011;49970;54.976;73.248;2024-02-14T10:08:57;14.30;;;10.05;;
63818;SDS011;49970;54.976;73.248;2024-02-14T10:12:31;21.23;;;10.67;;
63818;SDS011;49970;54.976;73.248;2024-02-14T10:16:02;25.20;;;13.68;;
63818;SDS011;49970;54.976;73.248;2024-02-14T10:19:33;23.98;;;15.15;;
63818;SDS011;49970;54.976;73.248;2024-02-14T10:23:07;23.33;;;11.77;;
63818;SDS011;49970;54.976;73.248;2024-02-14T10:25:37;34.10;;;11.18;;
63818;SDS011;49970;54.976;73.248;2024-02-14T10:28:04;12.13;;;8.63;;
63818;SDS011;49970;54.976;73.248;2024-02-14T10:30:35;48.35;;;11.73;;
63818;SDS011;49970;54.976;73.248;2024-02-14T10:33:03;10.80;;;9.70;;
63818;SDS011;49970;54.976;73.248;2024-02-14T10:35:30;10.43;;;8.25;;
63818;SDS011;49970;54.976;73.248;2024-02-14T10:38:00;19.70;;;8.50;;
63818;SDS011;49970;54.976;73.248;2024-02-14T10:40:28;11.13;;;9.68;;
63818;SDS011;49970;54.976;73.248;2024-02-14T10:42:55;19.58;;;10.15;;
63818;SDS011;49970;54.976;73.248;2024-02-14T10:45:26;17.58;;;11.50;;
63818;SDS011;49970;54.976;73.248;2024-02-14T10:47:53;35.40;;;15.27;;
63818;SDS011;49970;54.976;73.248;2024-02-14T10:50:24;24.92;;;10.98;;
63818;SDS011;49970;54.976;73.248;2024-02-14T10:52:51;21.35;;;9.65;;
63818;SDS011;49970;54.976;73.248;2024-02-14T10:55:23;40.27;;;9.43;;
63818;SDS011;49970;54.976;73.248;2024-02-14T10:57:53;22.63;;;13.45;;
63818;SDS011;49970;54.976;73.248;2024-02-14T11:00:20;26.70;;;16.33;;
63818;SDS011;49970;54.976;73.248;2024-02-14T11:02:47;36.13;;;17.40;;
63818;SDS011;49970;54.976;73.248;2024-02-14T11:05:15;17.30;;;12.18;;
63818;SDS011;49970;54.976;73.248;2024-02-14T11:07:45;14.95;;;9.25;;
63818;SDS011;49970;54.976;73.248;2024-02-14T11:10:24;62.95;;;10.57;;
63818;SDS011;49970;54.976;73.248;2024-02-14T11:13:56;22.27;;;10.80;;
63818;SDS011;49970;54.976;73.248;2024-02-14T11:16:23;13.57;;;9.93;;
63818;SDS011;49970;54.976;73.248;2024-02-14T11:18:54;27.75;;;9.95;;
63818;SDS011;49970;54.976;73.248;2024-02-14T11:21:42;15.30;;;9.32;;
63818;SDS011;49970;54.976;73.248;2024-02-14T11:24:12;12.18;;;8.70;;
63818;SDS011;49970;54.976;73.248;2024-02-14T11:26:47;18.95;;;9.50;;
63818;SDS011;49970;54.976;73.248;2024-02-14T11:29:17;20.60;;;9.18;;
63818;SDS011;49970;54.976;73.248;2024-02-14T11:31:45;12.88;;;9.07;;
63818;SDS011;49970;54.976;73.248;2024-02-14T11:34:30;14.27;;;9.15;;
63818;SDS011;49970;54.976;73.248;2024-02-14T11:36:59;24.25;;;9.18;;
63818;SDS011;49970;54.976;73.248;2024-02-14T11:39:28;12.55;;;8.02;;
63818;SDS011;49970;54.976;73.248;2024-02-14T11:41:56;16.92;;;10.70;;
63818;SDS011;49970;54.976;73.248;2024-02-14T11:44:24;12.82;;;9.60;;
63818;SDS011;49970;54.976;73.248;2024-02-14T11:46:51;20.73;;;8.45;;
63818;SDS011;49970;54.976;73.248;2024-02-14T11:49:18;10.10;;;8.48;;
63818;SDS011;49970;54.976;73.248;2024-02-14T11:51:44;19.52;;;13.85;;
63818;SDS011;49970;54.976;73.248;2024-02-14T11:54:11;33.55;;;15.30;;
63818;SDS011;49970;54.976;73.248;2024-02-14T11:56:37;22.27;;;11.20;;
63818;SDS011;49970;54.976;73.248;2024-02-14T11:59:05;37.78;;;9.73;;
63818;SDS011;49970;54.976;73.248;2024-02-14T12:01:34;25.02;;;10.65;;
63818;SDS011;49970;54.976;73.248;2024-02-14T12:04:01;15.68;;;11.85;;
63818;SDS011;49970;54.976;73.248;2024-02-14T12:06:30;19.92;;;11.57;;
63818;SDS011;49970;54.976;73.248;2024-02-14T12:09:00;33.90;;;16.27;;
63818;SDS011;49970;54.976;73.248;2024-02-14T12:11:50;36.25;;;13.05;;
63818;SDS011;49970;54.976;73.248;2024-02-14T12:14:21;31.55;;;14.57;;
63818;SDS011;49970;54.976;73.248;2024-02-14T12:17:00;28.83;;;18.85;;
63818;SDS011;49970;54.976;73.248;2024-02-14T12:19:32;26.02;;;19.00;;
63818;SDS011;49970;54.976;73.248;2024-02-14T12:22:00;32.30;;;17.33;;
63818;SDS011;49970;54.976;73.248;2024-02-14T12:24:27;11.48;;;9.20;;
63818;SDS011;49970;54.976;73.248;2024-02-14T12:26:54;15.68;;;10.50;;
63818;SDS011;49970;54.976;73.248;2024-02-14T12:29:23;15.90;;;10.35;;
63818;SDS011;49970;54.976;73.248;2024-02-14T12:31:49;15.68;;;9.80;;
63818;SDS011;49970;54.976;73.248;2024-02-14T12:34:16;19.17;;;11.23;;
63818;SDS011;49970;54.976;73.248;2024-02-14T12:37:03;16.58;;;9.55;;
63818;SDS011;49970;54.976;73.248;2024-02-14T12:39:43;32.00;;;12.05;;
63818;SDS011;49970;54.976;73.248;2024-02-14T12:42:10;14.38;;;9.63;;
63818;SDS011;49970;54.976;73.248;2024-02-14T12:44:37;15.57;;;10.00;;
63818;SDS011;49970;54.976;73.248;2024-02-14T12:47:03;12.35;;;10.00;;
63818;SDS011;49970;54.976;73.248;2024-02-14T12:49:30;25.33;;;9.88;;
63818;SDS011;49970;54.976;73.248;2024-02-14T12:51:57;12.38;;;8.68;;
63818;SDS011;49970;54.976;73.248;2024-02-14T12:54:23;18.88;;;9.35;;
63818;SDS011;49970;54.976;73.248;2024-02-14T12:56:51;14.00;;;9.35;;
63818;SDS011;49970;54.976;73.248;2024-02-14T12:59:18;15.43;;;9.30;;
63818;SDS011;49970;54.976;73.248;2024-02-14T13:01:44;24.00;;;8.77;;
63818;SDS011;49970;54.976;73.248;2024-02-14T13:04:11;13.52;;;9.15;;
63818;SDS011;49970;54.976;73.248;2024-02-14T13:06:38;20.73;;;11.68;;
63818;SDS011;49970;54.976;73.248;2024-02-14T13:10:09;28.88;;;16.08;;
63818;SDS011;49970;54.976;73.248;2024-02-14T13:12:37;27.55;;;14.35;;
63818;SDS011;49970;54.976;73.248;2024-02-14T13:15:04;27.77;;;13.57;;
63818;SDS011;49970;54.976;73.248;2024-02-14T13:17:34;31.48;;;18.77;;
63818;SDS011;49970;54.976;73.248;2024-02-14T13:20:01;27.25;;;16.77;;
63818;SDS011;49970;54.976;73.248;2024-02-14T13:22:27;20.80;;;14.80;;
63818;SDS011;49970;54.976;73.248;2024-02-14T13:24:54;34.38;;;19.70;;
63818;SDS011;49970;54.976;73.248;2024-02-14T13:27:42;21.45;;;14.20;;
63818;SDS011;49970;54.976;73.248;2024-02-14T13:30:10;22.58;;;12.55;;
63818;SDS011;49970;54.976;73.248;2024-02-14T13:32:36;16.85;;;10.35;;
63818;SDS011;49970;54.976;73.248;2024-02-14T13:35:03;16.27;;;9.63;;
63818;SDS011;49970;54.976;73.248;2024-02-14T13:37:32;12.10;;;8.88;;
63818;SDS011;49970;54.976;73.248;2024-02-14T13:40:06;16.65;;;10.55;;
63818;SDS011;49970;54.976;73.248;2024-02-14T13:42:38;13.98;;;9.80;;
63818;SDS011;49970;54.976;73.248;2024-02-14T13:46:10;12.50;;;9.18;;
63818;SDS011;49970;54.976;73.248;2024-02-14T13:48:49;15.43;;;10.48;;
63818;SDS011;49970;54.976;73.248;2024-02-14T13:51:35;14.50;;;10.18;;
63818;SDS011;49970;54.976;73.248;2024-02-14T13:54:01;15.32;;;9.77;;
63818;SDS011;49970;54.976;73.248;2024-02-14T13:56:28;19.58;;;10.23;;
63818;SDS011;49970;54.976;73.248;2024-02-14T13:58:54;15.35;;;10.75;;
63818;SDS011;49970;54.976;73.248;2024-02-14T14:01:21;18.92;;;12.95;;
63818;SDS011;49970;54.976;73.248;2024-02-14T14:04:05;17.40;;;12.38;;
63818;SDS011;49970;54.976;73.248;2024-02-14T14:06:40;19.27;;;12.23;;
63818;SDS011;49970;54.976;73.248;2024-02-14T14:10:12;20.27;;;11.68;;
63818;SDS011;49970;54.976;73.248;2024-02-14T14:12:50;15.10;;;12.00;;
63818;SDS011;49970;54.976;73.248;2024-02-14T14:15:16;19.75;;;10.45;;
63818;SDS011;49970;54.976;73.248;2024-02-14T14:17:42;13.25;;;9.98;;
63818;SDS011;49970;54.976;73.248;2024-02-14T14:20:09;14.20;;;10.43;;
63818;SDS011;49970;54.976;73.248;2024-02-14T14:22:36;12.85;;;9.10;;
63818;SDS011;49970;54.976;73.248;2024-02-14T14:25:04;21.40;;;9.20;;
63818;SDS011;49970;54.976;73.248;2024-02-14T14:27:34;10.82;;;9.07;;
63818;SDS011;49970;54.976;73.248;2024-02-14T14:30:00;14.38;;;9.18;;
63818;SDS011;49970;54.976;73.248;2024-02-14T14:32:27;14.38;;;9.93;;
63818;SDS011;49970;54.976;73.248;2024-02-14T14:34:53;12.55;;;9.23;;
63818;SDS011;49970;54.976;73.248;2024-02-14T14:37:19;16.85;;;9.45;;
63818;SDS011;49970;54.976;73.248;2024-02-14T14:39:47;15.18;;;9.65;;
63818;SDS011;49970;54.976;73.248;2024-02-14T14:42:13;12.65;;;10.05;;
63818;SDS011;49970;54.976;73.248;2024-02-14T14:44:40;14.10;;;9.60;;
63818;SDS011;49970;54.976;73.248;2024-02-14T14:47:07;14.65;;;10.18;;
63818;SDS011;49970;54.976;73.248;2024-02-14T14:49:34;27.40;;;9.00;;
63818;SDS011;49970;54.976;73.248;2024-02-14T14:52:00;13.90;;;9.50;;
63818;SDS011;49970;54.976;73.248;2024-02-14T14:54:30;10.68;;;8.82;;